createdAt,value
2019-04-11T00:00:39.614Z,4.18
2019-04-11T00:03:09.220Z,3.97
2019-04-11T00:05:39.067Z,3.85
2019-04-11T00:08:08.045Z,3.86
2019-04-11T00:10:37.477Z,3.83
2019-04-11T00:13:17.379Z,3.84
2019-04-11T00:15:37.493Z,3.87
2019-04-11T00:18:06.717Z,3.96
2019-04-11T00:20:36.082Z,3.74
2019-04-11T00:23:06.121Z,3.68
2019-04-11T00:25:35.885Z,3.90
2019-04-11T00:28:05.707Z,3.62
2019-04-11T00:30:34.873Z,3.61
2019-04-11T00:33:04.157Z,3.64
2019-04-11T00:35:33.581Z,3.62
2019-04-11T00:38:02.597Z,3.81
2019-04-11T00:40:31.706Z,3.59
2019-04-11T00:43:01.109Z,3.54
2019-04-11T00:45:31.793Z,3.56
2019-04-11T00:48:01.588Z,3.58
2019-04-11T00:50:31.631Z,3.52
2019-04-11T00:53:01.482Z,3.62
2019-04-11T00:55:31.356Z,3.77
2019-04-11T00:58:01.389Z,3.84
2019-04-11T01:00:31.183Z,3.86
2019-04-11T01:03:00.051Z,3.86
2019-04-11T01:05:29.782Z,3.83
2019-04-11T01:07:59.595Z,3.85
2019-04-11T01:10:28.391Z,3.79
2019-04-11T01:12:57.336Z,3.75
2019-04-11T01:15:27.177Z,3.64
2019-04-11T01:17:57.984Z,3.54
2019-04-11T01:20:27.231Z,3.46
2019-04-11T01:22:56.422Z,3.46
2019-04-11T01:25:25.406Z,3.49
2019-04-11T01:27:54.417Z,3.47
2019-04-11T01:33:04.557Z,3.34
2019-04-11T01:35:33.671Z,3.29
2019-04-11T01:38:02.677Z,3.33
2019-04-11T01:40:31.925Z,3.45
2019-04-11T01:43:01.907Z,3.43
2019-04-11T01:45:31.653Z,3.37
2019-04-11T01:48:11.146Z,3.36
2019-04-11T01:50:41.186Z,3.33
2019-04-11T01:53:11.012Z,3.22
2019-04-11T01:55:40.833Z,3.24
2019-04-11T01:58:10.767Z,3.24
2019-04-11T02:01:04.673Z,3.18
2019-04-11T02:03:45.496Z,3.12
2019-04-11T02:06:14.356Z,2.99
2019-04-11T02:08:43.852Z,2.96
2019-04-11T02:11:13.067Z,3.05
2019-04-11T02:13:41.842Z,3.14
2019-04-11T02:16:10.788Z,3.07
2019-04-11T02:18:40.064Z,3.14
2019-04-11T02:21:09.410Z,3.17
2019-04-11T02:24:07.773Z,3.09
2019-04-11T02:26:37.730Z,2.93
2019-04-11T02:29:06.761Z,3.04
2019-04-11T02:31:36.966Z,3.11
2019-04-11T02:34:08.625Z,3.18
2019-04-11T02:36:38.409Z,3.23
2019-04-11T02:39:16.678Z,3.11
2019-04-11T02:41:42.052Z,3.20
2019-04-11T02:44:27.153Z,3.06
2019-04-11T02:46:50.725Z,2.94
2019-04-11T02:49:12.098Z,3.10
2019-04-11T02:51:42.966Z,3.16
2019-04-11T02:54:13.536Z,3.20
2019-04-11T02:56:43.607Z,3.29
2019-04-11T02:59:13.508Z,3.30
2019-04-11T03:01:43.910Z,3.28
2019-04-11T03:04:14.793Z,3.25
2019-04-11T03:06:45.667Z,3.24
2019-04-11T03:09:15.403Z,3.29
2019-04-11T03:11:47.129Z,3.20
2019-04-11T03:14:16.889Z,3.29
2019-04-11T03:16:57.280Z,3.24
2019-04-11T03:19:30.089Z,3.27
2019-04-11T03:21:49.936Z,3.21
2019-04-11T03:24:21.673Z,3.15
2019-04-11T03:26:52.626Z,3.27
2019-04-11T03:29:21.787Z,3.18
2019-04-11T03:32:34.237Z,3.08
2019-04-11T03:35:12.300Z,2.90
2019-04-11T03:37:23.066Z,2.74
2019-04-11T03:39:48.869Z,2.79
2019-04-11T03:42:11.141Z,2.84
2019-04-11T03:44:31.430Z,2.77
2019-04-11T03:47:14.393Z,2.78
2019-04-11T03:49:36.749Z,2.74
2019-04-11T03:51:59.170Z,2.85
2019-04-11T03:54:29.484Z,2.91
2019-04-11T03:56:59.199Z,2.84
2019-04-11T03:59:28.977Z,2.78
2019-04-11T04:01:59.721Z,2.78
2019-04-11T04:04:29.151Z,2.74
2019-04-11T04:07:21.384Z,2.62
2019-04-11T04:09:51.219Z,2.64
2019-04-11T04:12:20.927Z,2.58
2019-04-11T04:15:37.830Z,2.54
2019-04-11T04:18:00.965Z,2.51
2019-04-11T04:20:53.115Z,2.52
2019-04-11T04:23:27.384Z,2.50
2019-04-11T04:25:58.529Z,2.60
2019-04-11T04:28:29.294Z,2.72
2019-04-11T04:31:00.091Z,2.56
2019-04-11T04:33:30.637Z,2.72
2019-04-11T04:36:00.695Z,2.67
2019-04-11T04:38:33.650Z,2.67
2019-04-11T04:41:33.444Z,2.58
2019-04-11T04:43:54.903Z,2.55
2019-04-11T04:46:39.758Z,2.62
2019-04-11T04:48:55.989Z,2.66
2019-04-11T04:51:26.634Z,2.62
2019-04-11T04:53:55.759Z,2.49
2019-04-11T04:56:29.532Z,2.59
2019-04-11T04:58:56.025Z,2.34
2019-04-11T05:01:26.451Z,1.94
2019-04-11T05:03:56.407Z,2.75
2019-04-11T05:06:26.214Z,2.61
2019-04-11T05:08:56.048Z,2.69
2019-04-11T05:11:26.268Z,2.57
2019-04-11T05:13:56.633Z,2.59
2019-04-11T05:16:25.694Z,2.59
2019-04-11T05:18:54.834Z,2.61
2019-04-11T05:21:23.503Z,2.71
2019-04-11T05:23:52.476Z,2.96
2019-04-11T05:26:21.590Z,2.95
2019-04-11T05:28:51.038Z,2.87
2019-04-11T05:31:20.620Z,2.89
2019-04-11T05:33:49.745Z,2.82
2019-04-11T05:36:18.704Z,2.77
2019-04-11T05:38:48.666Z,2.81
2019-04-11T05:41:20.177Z,2.77
2019-04-11T05:43:48.023Z,2.71
2019-04-11T05:46:31.124Z,2.72
2019-04-11T05:48:57.987Z,2.81
2019-04-11T05:51:23.858Z,2.87
2019-04-11T05:53:54.560Z,3.09
2019-04-11T05:56:43.720Z,3.01
2019-04-11T05:59:18.896Z,3.30
2019-04-11T06:02:08.229Z,3.34
2019-04-11T06:04:50.060Z,3.33
2019-04-11T06:07:23.213Z,3.47
2019-04-11T06:09:54.709Z,3.57
2019-04-11T06:12:43.464Z,3.52
2019-04-11T06:15:21.383Z,3.51
2019-04-11T06:17:50.387Z,3.57
2019-04-11T06:20:35.607Z,3.73
2019-04-11T06:23:23.362Z,3.70
2019-04-11T06:26:03.111Z,3.92
2019-04-11T06:28:32.628Z,3.82
2019-04-11T06:31:40.392Z,3.79
2019-04-11T06:34:09.286Z,3.85
2019-04-11T06:36:55.207Z,3.94
2019-04-11T06:39:43.832Z,3.98
2019-04-11T06:42:27.506Z,3.92
2019-04-11T06:45:29.911Z,3.85
2019-04-11T06:48:07.319Z,3.83
2019-04-11T06:50:44.482Z,3.90
2019-04-11T06:53:16.749Z,3.93
2019-04-11T06:56:03.757Z,4.04
2019-04-11T06:58:37.339Z,4.15
2019-04-11T07:01:11.885Z,4.06
2019-04-11T07:03:49.003Z,4.26
2019-04-11T07:06:20.151Z,4.29
2019-04-11T07:08:59.077Z,4.13
2019-04-11T07:11:36.562Z,4.14
2019-04-11T07:14:22.774Z,4.14
2019-04-11T07:17:10.610Z,4.28
2019-04-11T07:19:57.307Z,4.25
2019-04-11T07:22:43.713Z,4.25
2019-04-11T07:25:37.430Z,4.35
2019-04-11T07:28:14.442Z,4.29
2019-04-11T07:31:21.554Z,4.51
2019-04-11T07:34:12.172Z,4.58
2019-04-11T07:37:00.123Z,4.50
2019-04-11T07:39:45.032Z,4.59
2019-04-11T07:42:37.363Z,4.83
2019-04-11T07:45:11.603Z,5.10
2019-04-11T07:47:46.088Z,5.26
2019-04-11T07:50:16.759Z,5.13
2019-04-11T07:52:51.723Z,5.38
2019-04-11T07:55:22.800Z,5.23
2019-04-11T07:57:56.681Z,5.17
2019-04-11T08:00:52.875Z,5.17
2019-04-11T08:03:46.978Z,5.21
2019-04-11T08:06:33.384Z,5.51
2019-04-11T08:09:19.582Z,5.81
2019-04-11T08:12:04.550Z,5.80
2019-04-11T08:14:55.285Z,5.79
2019-04-11T08:17:36.507Z,5.84
2019-04-11T08:20:15.698Z,5.70
2019-04-11T08:22:47.566Z,5.91
2019-04-11T08:25:50.797Z,6.13
2019-04-11T08:28:20.551Z,6.24
2019-04-11T08:31:15.171Z,6.15
2019-04-11T08:33:44.291Z,6.32
2019-04-11T08:36:24.010Z,6.43
2019-04-11T08:38:53.256Z,6.64
2019-04-11T08:41:40.035Z,6.61
2019-04-11T08:44:20.622Z,6.58
2019-04-11T08:46:54.101Z,6.77
2019-04-11T08:49:32.255Z,6.74
2019-04-11T08:52:05.534Z,7.02
2019-04-11T08:54:51.400Z,6.93
2019-04-11T08:57:31.865Z,7.05
2019-04-11T09:00:33.036Z,7.22
2019-04-11T09:03:11.370Z,7.22
2019-04-11T09:05:54.065Z,7.18
2019-04-11T09:09:00.661Z,7.31
2019-04-11T09:11:38.826Z,7.33
2019-04-11T09:14:22.323Z,7.46
2019-04-11T09:16:58.308Z,7.50
2019-04-11T09:19:34.804Z,7.48
2019-04-11T09:22:29.120Z,7.43
2019-04-11T09:25:30.508Z,7.29
2019-04-11T09:28:09.239Z,7.35
2019-04-11T09:30:57.253Z,7.34
2019-04-11T09:33:57.550Z,7.29
2019-04-11T09:36:55.467Z,7.49
2019-04-11T09:39:37.216Z,7.40
2019-04-11T09:42:24.239Z,7.51
2019-04-11T09:45:05.504Z,7.77
2019-04-11T09:47:57.706Z,7.96
2019-04-11T09:50:53.192Z,8.09
2019-04-11T09:53:22.725Z,8.10
2019-04-11T09:56:09.213Z,8.32
2019-04-11T09:58:38.163Z,8.35
2019-04-11T10:01:25.063Z,8.30
2019-04-11T10:03:54.166Z,8.36
2019-04-11T10:06:41.798Z,8.33
2019-04-11T10:09:11.466Z,8.32
2019-04-11T10:12:02.391Z,8.27
2019-04-11T10:14:31.587Z,8.24
2019-04-11T10:17:26.875Z,8.41
2019-04-11T10:19:58.607Z,8.32
2019-04-11T10:22:50.021Z,8.16
2019-04-11T10:25:31.892Z,8.03
2019-04-11T10:28:21.566Z,7.78
2019-04-11T10:31:04.277Z,7.75
2019-04-11T10:33:51.031Z,7.71
2019-04-11T10:36:25.365Z,7.82
2019-04-11T10:39:18.181Z,7.52
2019-04-11T10:41:50.456Z,7.44
2019-04-11T10:44:25.744Z,7.41
2019-04-11T10:46:59.854Z,7.42
2019-04-11T10:49:46.418Z,7.31
2019-04-11T10:52:34.210Z,7.33
2019-04-11T10:55:05.837Z,7.24
2019-04-11T10:57:38.429Z,7.39
2019-04-11T11:00:14.191Z,7.42
2019-04-11T11:03:06.230Z,7.32
2019-04-11T11:05:36.380Z,7.29
2019-04-11T11:08:21.574Z,7.22
2019-04-11T11:10:52.142Z,7.12
2019-04-11T11:13:40.757Z,7.19
2019-04-11T11:16:09.610Z,7.33
2019-04-11T11:19:24.470Z,7.34
2019-04-11T11:21:33.284Z,7.38
2019-04-11T11:24:33.770Z,7.57
2019-04-11T11:27:04.518Z,7.55
2019-04-11T11:29:54.008Z,7.83
2019-04-11T11:32:31.803Z,7.94
2019-04-11T11:35:26.064Z,8.04
2019-04-11T11:37:57.539Z,7.97
2019-04-11T11:40:56.538Z,7.81
2019-04-11T11:43:30.962Z,7.80
2019-04-11T11:46:19.355Z,7.92
2019-04-11T11:48:54.151Z,7.91
2019-04-11T11:51:37.364Z,7.75
2019-04-11T11:54:11.779Z,7.67
2019-04-11T11:56:42.438Z,7.70
2019-04-11T11:59:18.248Z,7.66
2019-04-11T12:01:54.294Z,7.90
2019-04-11T12:04:42.133Z,7.79
2019-04-11T12:07:12.761Z,7.74
2019-04-11T12:10:13.361Z,7.71
2019-04-11T12:12:51.997Z,7.66
2019-04-11T12:15:43.503Z,7.58
2019-04-11T12:18:31.232Z,7.43
2019-04-11T12:21:03.317Z,7.40
2019-04-11T12:24:06.682Z,7.61
2019-04-11T12:26:43.230Z,7.51
2019-04-11T12:29:30.496Z,7.41
2019-04-11T12:32:01.231Z,7.49
2019-04-11T12:34:49.392Z,7.49
2019-04-11T12:37:25.229Z,7.61
2019-04-11T12:40:31.616Z,7.51
2019-04-11T12:43:01.512Z,7.51
2019-04-11T12:45:55.049Z,7.48
2019-04-11T12:48:34.772Z,7.43
2019-04-11T12:51:37.480Z,7.47
2019-04-11T12:54:10.301Z,7.34
2019-04-11T12:56:56.801Z,7.44
2019-04-11T12:59:28.260Z,7.39
2019-04-11T13:02:28.931Z,7.31
2019-04-11T13:04:58.094Z,7.29
2019-04-11T13:07:44.609Z,7.31
2019-04-11T13:10:45.947Z,7.20
2019-04-11T13:13:45.872Z,7.20
2019-04-11T13:16:16.341Z,7.16
2019-04-11T13:19:04.335Z,7.10
2019-04-11T13:21:45.375Z,6.99
2019-04-11T13:24:45.751Z,6.85
2019-04-11T13:27:23.163Z,6.70
2019-04-11T13:30:14.212Z,6.84
2019-04-11T13:32:46.278Z,6.93
2019-04-11T13:35:31.719Z,7.00
2019-04-11T13:38:04.176Z,7.13
2019-04-11T13:40:47.081Z,7.01
2019-04-11T13:43:23.742Z,6.81
2019-04-11T13:46:01.234Z,6.78
2019-04-11T13:48:48.940Z,6.75
2019-04-11T13:51:27.475Z,6.78
2019-04-11T13:54:24.482Z,6.88
2019-04-11T13:57:12.212Z,6.80
2019-04-11T13:59:59.571Z,6.87
2019-04-11T14:02:50.655Z,6.99
2019-04-11T14:05:11.528Z,7.03
2019-04-11T14:07:40.567Z,7.03
2019-04-11T14:10:09.597Z,6.96
2019-04-11T14:12:39.040Z,7.08
2019-04-11T14:15:11.151Z,7.11
2019-04-11T14:17:46.181Z,7.15
2019-04-11T14:20:33.297Z,7.20
2019-04-11T14:23:23.891Z,7.19
2019-04-11T14:26:14.553Z,7.15
2019-04-11T14:29:15.017Z,7.26
2019-04-11T14:32:02.952Z,7.31
2019-04-11T14:34:57.015Z,7.31
2019-04-11T14:37:44.073Z,7.27
2019-04-11T14:40:31.133Z,7.41
2019-04-11T14:43:28.010Z,7.32
2019-04-11T14:46:16.056Z,7.17
2019-04-11T14:49:05.686Z,6.94
2019-04-11T14:51:58.402Z,7.06
2019-04-11T14:55:01.288Z,7.05
2019-04-11T14:57:47.088Z,7.03
2019-04-11T15:00:25.073Z,6.90
2019-04-11T15:03:25.413Z,6.79
2019-04-11T15:06:14.853Z,6.64
2019-04-11T15:08:53.282Z,6.80
2019-04-11T15:11:39.956Z,6.58
2019-04-11T15:14:17.667Z,6.66
2019-04-11T15:17:18.446Z,6.70
2019-04-11T15:19:53.635Z,6.74
2019-04-11T15:22:47.977Z,6.86
2019-04-11T15:25:24.147Z,6.83
2019-04-11T15:28:07.987Z,6.79
2019-04-11T15:30:38.459Z,6.58
2019-04-11T15:33:41.759Z,6.71
2019-04-11T15:36:19.197Z,6.73
2019-04-11T15:39:10.049Z,6.75
2019-04-11T15:41:40.172Z,6.61
2019-04-11T15:44:36.826Z,6.70
2019-04-11T15:47:07.887Z,6.67
2019-04-11T15:49:55.864Z,6.72
2019-04-11T15:52:24.605Z,6.81
2019-04-11T15:55:11.221Z,6.77
2019-04-11T15:57:52.426Z,6.83
2019-04-11T16:00:43.904Z,6.72
2019-04-11T16:03:24.539Z,6.62
2019-04-11T16:06:10.977Z,6.74
2019-04-11T16:08:44.780Z,6.66
2019-04-11T16:11:32.672Z,6.72
2019-04-11T16:14:06.823Z,6.66
2019-04-11T16:17:00.348Z,6.69
2019-04-11T16:19:42.227Z,6.58
2019-04-11T16:22:29.956Z,6.54
2019-04-11T16:25:00.755Z,6.32
2019-04-11T16:27:48.810Z,6.35
2019-04-11T16:30:18.938Z,6.16
2019-04-11T16:32:55.145Z,6.31
2019-04-11T16:35:32.940Z,6.26
2019-04-11T16:38:02.600Z,6.11
2019-04-11T16:40:53.484Z,6.09
2019-04-11T16:43:24.110Z,6.07
2019-04-11T16:46:09.897Z,6.03
2019-04-11T16:48:38.638Z,6.04
2019-04-11T16:51:07.400Z,6.10
2019-04-11T16:53:36.182Z,6.02
2019-04-11T16:56:05.280Z,5.98
2019-04-11T16:58:34.742Z,5.97
2019-04-11T17:01:03.564Z,6.05
2019-04-11T17:03:32.344Z,6.11
2019-04-11T17:06:07.136Z,6.26
2019-04-11T17:08:40.834Z,5.99
2019-04-11T17:11:18.893Z,5.86
2019-04-11T17:13:47.504Z,6.09
2019-04-11T17:16:20.121Z,6.12
2019-04-11T17:18:49.347Z,5.96
2019-04-11T17:21:18.066Z,5.84
2019-04-11T17:23:48.604Z,5.88
2019-04-11T17:26:17.836Z,5.93
2019-04-11T17:28:46.798Z,5.79
2019-04-11T17:31:15.671Z,5.63
2019-04-11T17:33:44.997Z,5.62
2019-04-11T17:36:13.826Z,5.73
2019-04-11T17:38:42.596Z,5.64
2019-04-11T17:41:12.372Z,5.57
2019-04-11T17:43:42.264Z,5.53
2019-04-11T17:46:11.084Z,5.65
2019-04-11T17:48:40.033Z,5.63
2019-04-11T17:51:09.647Z,5.59
2019-04-11T17:53:38.528Z,5.50
2019-04-11T17:56:07.261Z,5.55
2019-04-11T17:58:35.995Z,5.51
2019-04-11T18:01:06.589Z,5.46
2019-04-11T18:03:35.629Z,5.48
2019-04-11T18:06:04.466Z,5.48
2019-04-11T18:08:33.473Z,5.46
2019-04-11T18:11:02.171Z,5.41
2019-04-11T18:13:31.735Z,5.39
2019-04-11T18:16:01.769Z,5.43
2019-04-11T18:18:34.855Z,5.44
2019-04-11T18:21:01.650Z,5.37
2019-04-11T18:23:30.465Z,5.46
2019-04-11T18:25:59.146Z,5.35
2019-04-11T18:28:28.174Z,5.54
2019-04-11T18:30:56.869Z,5.53
2019-04-11T18:33:25.757Z,5.51
2019-04-11T18:35:54.576Z,5.42
2019-04-11T18:38:23.302Z,5.42
2019-04-11T18:40:51.996Z,5.38
2019-04-11T18:43:20.847Z,5.28
2019-04-11T18:45:49.819Z,5.25
2019-04-11T18:48:18.557Z,5.33
2019-04-11T18:50:47.313Z,5.22
2019-04-11T18:53:16.089Z,5.17
2019-04-11T18:55:45.266Z,5.16
2019-04-11T18:58:14.237Z,5.15
2019-04-11T19:00:42.995Z,5.31
2019-04-11T19:03:14.252Z,5.36
2019-04-11T19:05:43.005Z,5.34
2019-04-11T19:08:13.120Z,5.48
2019-04-11T19:10:45.153Z,5.32
2019-04-11T19:13:16.737Z,5.34
2019-04-11T19:15:45.801Z,5.46
2019-04-11T19:18:16.302Z,5.26
2019-04-11T19:20:45.429Z,5.15
2019-04-11T19:23:14.203Z,5.09
2019-04-11T19:25:45.094Z,5.19
2019-04-11T19:28:13.732Z,5.33
2019-04-11T19:30:42.586Z,5.25
2019-04-11T19:33:11.488Z,5.10
2019-04-11T19:35:41.590Z,5.10
2019-04-11T19:38:23.838Z,4.91
2019-04-11T19:40:52.608Z,5.12
2019-04-11T19:43:21.393Z,5.16
2019-04-11T19:45:50.575Z,5.03
2019-04-11T19:48:19.255Z,4.91
2019-04-11T19:50:47.941Z,4.87
2019-04-11T19:53:16.669Z,4.97
2019-04-11T19:58:52.135Z,5.00
2019-04-11T20:01:23.522Z,4.97
2019-04-11T20:03:53.927Z,5.23
2019-04-11T20:06:22.251Z,5.12
2019-04-11T20:08:51.201Z,5.04
2019-04-11T20:11:20.436Z,3.81
2019-04-11T20:13:49.431Z,4.94
2019-04-11T20:16:18.372Z,4.91
2019-04-11T20:18:51.181Z,4.86
2019-04-11T20:21:18.333Z,4.80
2019-04-11T20:23:47.277Z,4.81
2019-04-11T20:26:19.948Z,4.99
2019-04-11T20:28:48.190Z,4.92
2019-04-11T20:31:17.769Z,4.95
2019-04-11T20:33:46.730Z,4.97
2019-04-11T20:36:15.398Z,4.91
2019-04-11T20:38:44.740Z,4.85
2019-04-11T20:41:14.511Z,5.03
2019-04-11T20:43:43.346Z,5.06
2019-04-11T20:46:11.989Z,4.94
2019-04-11T20:48:41.186Z,4.89
2019-04-11T20:51:10.178Z,4.78
2019-04-11T20:53:39.466Z,4.82
2019-04-11T20:56:09.954Z,4.79
2019-04-11T20:58:40.287Z,4.76
2019-04-11T21:01:09.040Z,4.75
2019-04-11T21:03:37.736Z,4.81
2019-04-11T21:06:09.027Z,4.75
2019-04-11T21:08:37.985Z,4.83
2019-04-11T21:11:06.694Z,4.79
2019-04-11T21:13:39.994Z,4.97
2019-04-11T21:16:08.691Z,4.96
2019-04-11T21:18:37.704Z,4.86
2019-04-11T21:21:09.762Z,4.75
2019-04-11T21:23:37.639Z,4.68
2019-04-11T21:26:06.348Z,4.62
2019-04-11T21:28:35.036Z,4.69
2019-04-11T21:31:03.820Z,4.66
2019-04-11T21:33:34.930Z,4.66
2019-04-11T21:36:03.436Z,4.65
2019-04-11T21:38:34.597Z,4.61
2019-04-11T21:41:05.889Z,4.74
2019-04-11T21:43:36.275Z,4.57
2019-04-11T21:46:06.870Z,4.68
2019-04-11T21:48:36.091Z,4.58
2019-04-11T21:51:05.502Z,4.60
2019-04-11T21:53:36.793Z,4.53
2019-04-11T21:56:04.631Z,4.54
2019-04-11T21:58:33.614Z,4.62
2019-04-11T22:01:07.303Z,4.51
2019-04-11T22:03:36.057Z,4.52
2019-04-11T22:06:04.909Z,4.57
2019-04-11T22:08:34.373Z,4.43
2019-04-11T22:11:04.594Z,4.41
2019-04-11T22:13:33.256Z,4.40
2019-04-11T22:16:02.192Z,4.53
2019-04-11T22:18:30.934Z,4.47
2019-04-11T22:20:59.626Z,4.44
2019-04-11T22:23:28.310Z,4.65
2019-04-11T22:25:56.986Z,4.56
2019-04-11T22:28:25.687Z,4.50
2019-04-11T22:30:55.144Z,4.38
2019-04-11T22:33:31.849Z,4.37
2019-04-11T22:36:00.791Z,4.40
2019-04-11T22:38:30.956Z,4.30
2019-04-11T22:41:02.027Z,4.26
2019-04-11T22:43:31.512Z,4.22
2019-04-11T22:46:00.476Z,4.30
2019-04-11T22:48:29.151Z,4.25
2019-04-11T22:50:57.843Z,4.39
2019-04-11T22:53:26.609Z,4.30
2019-04-11T22:55:55.526Z,4.27
2019-04-11T22:58:24.443Z,4.40
2019-04-11T23:00:53.433Z,4.24
2019-04-11T23:03:33.179Z,4.14
2019-04-11T23:06:02.209Z,4.03
2019-04-11T23:08:31.264Z,4.05
2019-04-11T23:11:00.258Z,4.06
2019-04-11T23:13:28.959Z,4.09
2019-04-11T23:15:57.737Z,4.22
2019-04-11T23:18:26.751Z,4.26
2019-04-11T23:20:56.043Z,4.18
2019-04-11T23:23:25.116Z,4.20
2019-04-11T23:25:54.115Z,4.19
2019-04-11T23:28:23.125Z,4.21
2019-04-11T23:30:51.815Z,4.17
2019-04-11T23:33:21.448Z,4.11
2019-04-11T23:35:51.231Z,4.23
2019-04-11T23:38:23.558Z,4.21
2019-04-11T23:40:51.787Z,4.13
2019-04-11T23:43:20.944Z,4.18
2019-04-11T23:45:51.209Z,4.01
2019-04-11T23:48:23.834Z,4.03
2019-04-11T23:50:54.750Z,3.96
2019-04-11T23:53:21.674Z,3.91
2019-04-11T23:55:50.518Z,3.93
2019-04-11T23:58:19.719Z,3.91
